Time;durP1;ratioP1;P1;durP2;ratioP2;P2;SDS_P1;SDS_P2;PMS_P1;PMS_P2;Temp;Humidity;BMP_temperature;BMP_pressure;BME280_temperature;BME280_humidity;BME280_pressure;Samples;Min_cycle;Max_cycle;Signal;HPM_P1;HPM_P2
2022/06/11 00:01:06;;;;;;;;;4.00;3.50;;;;;18.58;69.40;101640.03;5123245;27;45234;-81
2022/06/11 00:03:31;;;;;;;;;4.00;4.00;;;;;18.39;69.05;101617.53;5113145;27;45034;-81
2022/06/11 00:05:57;;;;;;;;;4.00;4.00;;;;;18.52;69.48;101642.56;5102804;27;45938;-79
2022/06/11 00:08:22;;;;;;;;;5.00;4.00;;;;;18.45;69.03;101628.28;5098758;27;45161;-84
2022/06/11 00:10:48;;;;;;;;;4.00;4.00;;;;;18.34;69.43;101610.34;5115932;27;45054;-80
2022/06/11 00:13:14;;;;;;;;;4.75;4.75;;;;;18.30;69.72;101604.06;5111093;27;45076;-79
2022/06/11 00:15:40;;;;;;;;;3.75;3.75;;;;;18.45;69.64;101633.59;5115342;27;45469;-82
2022/06/11 00:18:06;;;;;;;;;4.00;4.00;;;;;18.37;69.35;101618.38;5111230;27;45643;-79
2022/06/11 00:20:32;;;;;;;;;4.00;4.00;;;;;18.34;69.80;101621.88;5127737;27;45111;-83
2022/06/11 00:22:58;;;;;;;;;4.00;3.00;;;;;18.18;69.95;101599.44;5132083;27;45061;-81
2022/06/11 00:25:24;;;;;;;;;3.50;3.50;;;;;18.08;70.01;101577.97;5114841;27;45400;-81
2022/06/11 00:27:49;;;;;;;;;5.75;5.25;;;;;18.33;69.32;101624.53;5110645;27;45303;-82
2022/06/11 00:30:16;;;;;;;;;4.75;4.75;;;;;18.36;69.71;101635.22;5111637;27;45244;-80
2022/06/11 00:32:41;;;;;;;;;4.75;4.75;;;;;18.30;69.73;101628.03;5111101;27;45079;-79
2022/06/11 00:35:08;;;;;;;;;3.00;3.00;;;;;18.14;69.78;101613.56;5110232;27;45654;-79
2022/06/11 00:37:34;;;;;;;;;4.50;4.50;;;;;18.24;69.91;101630.59;5111197;27;45276;-82
2022/06/11 00:40:00;;;;;;;;;4.50;4.50;;;;;18.12;69.51;101617.06;5114539;27;45294;-82
2022/06/11 00:42:33;;;;;;;;;3.75;3.75;;;;;18.13;70.09;101624.16;5101914;27;45174;-80
2022/06/11 00:45:43;;;;;;;;;4.50;4.50;;;;;18.19;70.21;101632.28;5112420;27;45260;-81
2022/06/11 00:48:09;;;;;;;;;4.25;4.25;;;;;18.16;70.11;101641.09;5072862;27;45542;-82
2022/06/11 00:50:40;;;;;;;;;4.50;3.75;;;;;18.11;69.90;101637.44;5111004;27;45192;-80
2022/06/11 00:53:30;;;;;;;;;4.00;3.75;;;;;18.15;69.92;101638.41;5109512;27;45608;-83
2022/06/11 00:55:56;;;;;;;;;4.00;4.00;;;;;18.00;70.24;101621.28;5094242;27;47034;-80
2022/06/11 00:58:26;;;;;;;;;4.25;4.25;;;;;18.08;70.32;101639.13;5111270;27;45521;-84
2022/06/11 01:00:58;;;;;;;;;3.00;3.00;;;;;18.00;70.35;101629.28;5110609;27;45246;-78
2022/06/11 01:03:31;;;;;;;;;5.00;5.00;;;;;18.01;70.22;101633.72;5115114;27;45154;-81
2022/06/11 01:06:22;;;;;;;;;5.00;5.00;;;;;17.99;70.50;101634.56;5097195;27;47128;-84
2022/06/11 01:09:15;;;;;;;;;3.75;3.75;;;;;17.93;70.09;101638.03;5114976;27;45184;-79
2022/06/11 01:12:20;;;;;;;;;5.00;4.50;;;;;17.94;70.79;101642.47;5077743;27;45051;-83
2022/06/11 01:14:57;;;;;;;;;4.25;4.25;;;;;17.91;70.60;101639.75;5110110;27;45190;-78
2022/06/11 01:17:40;;;;;;;;;3.25;3.25;;;;;17.77;70.69;101610.22;5091401;27;46211;-79
2022/06/11 01:20:09;;;;;;;;;5.25;5.00;;;;;17.88;70.70;101633.44;5112863;27;45601;-81
2022/06/11 01:23:03;;;;;;;;;4.25;4.25;;;;;17.87;70.53;101637.00;5110571;27;45343;-79
2022/06/11 01:26:10;;;;;;;;;5.50;5.50;;;;;17.77;71.02;101625.28;5110194;27;45027;-83
2022/06/11 01:28:53;;;;;;;;;3.50;3.50;;;;;17.85;71.06;101629.00;5123703;27;45885;-79
2022/06/11 01:31:32;;;;;;;;;6.00;5.25;;;;;17.79;70.75;101615.59;5100335;27;45515;-81
2022/06/11 01:34:18;;;;;;;;;4.25;4.25;;;;;17.54;71.26;101576.97;5126700;27;45203;-82
2022/06/11 01:36:47;;;;;;;;;4.75;4.75;;;;;17.85;70.84;101629.00;5110158;27;45261;-82
2022/06/11 01:39:22;;;;;;;;;4.75;4.75;;;;;17.77;71.33;101620.84;5098378;27;46980;-79
2022/06/11 01:41:53;;;;;;;;;3.75;3.75;;;;;17.80;71.15;101628.00;5129386;27;45729;-78
2022/06/11 01:44:26;;;;;;;;;4.50;4.50;;;;;17.58;70.62;101610.69;5111376;27;45159;-79
2022/06/11 01:46:54;;;;;;;;;5.50;5.25;;;;;17.40;71.31;101574.03;5114172;27;45316;-83
2022/06/11 01:49:23;;;;;;;;;5.50;5.50;;;;;17.73;71.46;101642.03;5095169;27;47317;-80
2022/06/11 01:52:03;;;;;;;;;4.50;4.50;;;;;17.71;70.98;101643.75;5127368;27;45171;-78
2022/06/11 01:55:04;;;;;;;;;6.50;6.50;;;;;17.66;70.84;101646.31;5098159;27;45360;-82
2022/06/11 01:57:41;;;;;;;;;4.25;4.00;;;;;17.66;71.07;101642.75;5082675;27;45142;-79
2022/06/11 02:00:09;;;;;;;;;4.50;4.50;;;;;17.66;71.33;101641.00;5112550;27;46082;-83
2022/06/11 02:02:47;;;;;;;;;4.25;4.25;;;;;17.67;70.96;101639.22;5111029;27;45366;-78
2022/06/11 02:05:24;;;;;;;;;5.75;5.25;;;;;17.65;71.07;101641.88;5110528;27;45174;-79
2022/06/11 02:08:11;;;;;;;;;4.75;4.25;;;;;17.64;71.15;101644.50;5126917;27;45412;-82
2022/06/11 02:10:55;;;;;;;;;6.50;5.50;;;;;17.65;71.25;101648.94;5103673;27;47728;-83
2022/06/11 02:13:43;;;;;;;;;5.25;5.25;;;;;17.57;71.08;101648.78;5116266;27;45689;-78
2022/06/11 02:16:32;;;;;;;;;5.00;5.00;;;;;17.40;71.45;101621.88;5107801;27;45410;-81
2022/06/11 02:19:00;;;;;;;;;5.00;4.50;;;;;17.38;71.43;101625.34;5116875;27;45000;-80
2022/06/11 02:21:31;;;;;;;;;5.25;5.00;;;;;17.48;71.57;101648.59;5112922;27;45888;-78
2022/06/11 02:24:05;;;;;;;;;5.25;5.25;;;;;17.40;71.49;101642.22;5109148;27;45848;-80
2022/06/11 02:26:36;;;;;;;;;5.00;4.50;;;;;17.41;72.09;101638.72;5110270;27;45179;-79
2022/06/11 02:29:03;;;;;;;;;5.25;5.00;;;;;17.46;71.84;101643.25;5125668;27;45304;-79
2022/06/11 02:31:42;;;;;;;;;4.50;4.50;;;;;17.28;71.39;101625.16;5115126;27;45822;-83
2022/06/11 02:34:09;;;;;;;;;5.75;5.75;;;;;17.35;71.65;101639.47;5099230;27;45316;-78
2022/06/11 02:37:02;;;;;;;;;4.50;4.50;;;;;17.28;71.44;101626.91;5116314;27;45254;-79
2022/06/11 02:39:32;;;;;;;;;6.75;6.00;;;;;17.38;71.64;101652.81;5094506;27;45127;-80
2022/06/11 02:41:57;;;;;;;;;6.50;6.00;;;;;17.30;71.70;101649.13;5128835;27;45510;-81
2022/06/11 02:44:23;;;;;;;;;5.75;5.75;;;;;17.33;71.78;101651.81;5111618;27;45382;-79
2022/06/11 02:46:49;;;;;;;;;4.50;4.25;;;;;17.27;72.07;101643.72;5132960;27;45126;-78
2022/06/11 02:49:27;;;;;;;;;4.50;4.50;;;;;17.21;71.53;101619.69;5113772;27;45489;-82
2022/06/11 02:51:58;;;;;;;;;5.00;4.00;;;;;17.36;71.83;101643.91;5132456;27;45730;-82
2022/06/11 02:54:25;;;;;;;;;5.50;5.50;;;;;17.42;71.45;101662.66;5102876;27;45541;-80
2022/06/11 02:56:53;;;;;;;;;6.25;5.75;;;;;17.33;71.68;101642.94;5126200;27;45531;-81
2022/06/11 02:59:20;;;;;;;;;7.75;6.50;;;;;17.42;71.56;101662.66;5123687;27;45326;-81
2022/06/11 03:01:46;;;;;;;;;6.75;6.25;;;;;17.41;71.93;101666.19;5112650;27;45415;-78
2022/06/11 03:04:12;;;;;;;;;6.75;6.00;;;;;17.43;72.02;101672.41;5112186;27;45574;-79
2022/06/11 03:06:41;;;;;;;;;5.00;5.00;;;;;17.38;72.06;101663.44;5112740;27;45008;-80
2022/06/11 03:09:07;;;;;;;;;6.25;6.25;;;;;17.16;72.29;101629.31;5117860;27;45117;-82
2022/06/11 03:11:33;;;;;;;;;7.50;6.50;;;;;17.09;71.79;101616.75;5126897;27;47482;-77
2022/06/11 03:13:59;;;;;;;;;5.25;4.50;;;;;17.35;71.64;101673.13;5119311;27;45053;-79
2022/06/11 03:16:25;;;;;;;;;5.75;5.75;;;;;17.09;72.16;101635.34;5121036;27;45200;-83
2022/06/11 03:18:50;;;;;;;;;6.50;5.75;;;;;17.06;71.98;101632.63;5114711;27;45109;-82
2022/06/11 03:21:16;;;;;;;;;6.50;6.50;;;;;17.19;71.81;101658.59;5105873;27;46230;-78
2022/06/11 03:23:44;;;;;;;;;7.00;6.00;;;;;16.97;71.98;101622.69;5132966;27;45219;-81
2022/06/11 03:26:10;;;;;;;;;6.00;5.00;;;;;17.21;71.62;101678.13;5112090;27;45388;-79
2022/06/11 03:28:36;;;;;;;;;7.00;6.00;;;;;17.19;72.20;101672.78;5094017;27;45317;-80
2022/06/11 03:31:06;;;;;;;;;7.00;6.50;;;;;17.21;71.93;101675.47;5111537;27;45828;-80
2022/06/11 03:33:32;;;;;;;;;6.75;6.50;;;;;17.15;72.53;101670.94;5111378;27;45148;-79
2022/06/11 03:35:57;;;;;;;;;6.50;6.00;;;;;17.07;72.23;101653.00;5092807;27;45345;-80
2022/06/11 03:38:22;;;;;;;;;7.50;6.00;;;;;16.88;72.32;101623.38;5115273;27;45344;-79
2022/06/11 03:40:48;;;;;;;;;5.75;5.50;;;;;17.25;72.04;101682.66;5112084;27;45204;-83
2022/06/11 03:43:14;;;;;;;;;6.00;6.00;;;;;17.26;71.83;101692.41;5123338;27;45057;-81
2022/06/11 03:45:40;;;;;;;;;6.00;5.75;;;;;17.30;72.03;101702.25;5110672;27;45310;-79
2022/06/11 03:48:06;;;;;;;;;6.25;5.75;;;;;17.11;72.26;101657.53;5121767;27;45017;-79
2022/06/11 03:50:35;;;;;;;;;6.25;5.75;;;;;17.31;71.88;101705.81;5121948;27;46285;-79
2022/06/11 03:53:02;;;;;;;;;5.50;5.50;;;;;17.30;71.66;101712.88;5120040;27;45853;-81
2022/06/11 03:55:28;;;;;;;;;5.50;5.25;;;;;17.05;71.83;101657.41;5122325;27;45651;-78
2022/06/11 03:57:54;;;;;;;;;10.00;8.00;;;;;17.26;71.59;101695.06;5111170;27;45341;-78
2022/06/11 04:03:10;;;;;;;;;6.75;6.75;;;;;17.31;72.05;101714.66;5088624;27;45368;-79
2022/06/11 04:05:37;;;;;;;;;7.50;6.50;;;;;17.31;71.99;101717.31;5132591;27;45284;-83
2022/06/11 04:08:03;;;;;;;;;6.25;6.00;;;;;16.76;71.85;101634.63;5131945;27;45244;-79
2022/06/11 04:10:29;;;;;;;;;9.25;7.75;;;;;16.93;72.00;101669.53;5115814;27;45782;-84
2022/06/11 04:12:54;;;;;;;;;6.75;6.00;;;;;16.90;71.82;101672.13;5115144;27;45408;-79
2022/06/11 04:15:20;;;;;;;;;5.50;5.25;;;;;16.89;72.19;101666.75;5116329;27;45081;-83
2022/06/11 04:17:46;;;;;;;;;8.00;7.00;;;;;17.12;72.13;101709.78;5110759;27;44995;-79
2022/06/11 04:20:14;;;;;;;;;5.00;5.00;;;;;17.20;72.33;101726.81;5118937;27;45278;-83
2022/06/11 04:22:40;;;;;;;;;6.00;6.00;;;;;17.26;72.37;101730.50;5113220;27;45185;-82
2022/06/11 04:25:06;;;;;;;;;6.00;6.00;;;;;17.19;72.22;101719.69;5130348;27;45408;-83
2022/06/11 04:27:32;;;;;;;;;7.00;6.50;;;;;17.24;71.74;101731.31;5124757;27;45151;-82
2022/06/11 04:29:58;;;;;;;;;6.75;6.75;;;;;17.24;72.04;101720.69;5123026;27;45296;-81
2022/06/11 04:32:25;;;;;;;;;10.00;7.50;;;;;17.27;71.83;101723.44;5118623;27;45354;-84
2022/06/11 04:34:52;;;;;;;;;5.50;5.00;;;;;17.26;71.47;101727.84;5124316;27;45007;-81
2022/06/11 04:37:20;;;;;;;;;6.00;6.00;;;;;17.24;71.42;101716.31;5118211;27;45536;-79
2022/06/11 04:39:49;;;;;;;;;8.25;7.25;;;;;17.46;71.77;101746.91;5128136;27;46028;-82
2022/06/11 04:42:15;;;;;;;;;6.00;6.00;;;;;17.44;71.37;101751.31;5111965;27;45645;-79
2022/06/11 04:44:42;;;;;;;;;5.50;4.75;;;;;17.46;71.84;101749.56;5110843;27;45053;-80
2022/06/11 04:47:10;;;;;;;;;6.00;6.00;;;;;17.47;71.88;101742.47;5110178;27;45059;-78
2022/06/11 04:49:36;;;;;;;;;8.25;8.00;;;;;17.25;71.66;101715.44;5091358;27;47899;-80
2022/06/11 04:52:03;;;;;;;;;7.00;6.75;;;;;17.17;71.47;101687.78;5110734;27;45250;-80
2022/06/11 04:54:28;;;;;;;;;6.00;6.00;;;;;17.52;71.34;101751.47;5091733;27;45199;-80
2022/06/11 04:56:54;;;;;;;;;7.25;6.00;;;;;17.60;71.78;101754.28;5118885;27;45105;-78
2022/06/11 04:59:20;;;;;;;;;5.25;5.25;;;;;17.56;72.15;101742.69;5112775;27;45436;-83
2022/06/11 05:01:45;;;;;;;;;7.00;7.00;;;;;17.46;72.01;101722.97;5109763;27;45117;-81
2022/06/11 05:04:13;;;;;;;;;5.50;4.50;;;;;17.71;71.98;101747.44;5114588;27;44921;-79
2022/06/11 05:06:42;;;;;;;;;6.75;6.50;;;;;17.37;72.14;101698.84;5120033;27;45363;-81
2022/06/11 05:09:09;;;;;;;;;6.50;6.50;;;;;17.47;72.05;101697.28;5121351;27;45252;-79
2022/06/11 05:11:34;;;;;;;;;6.50;6.25;;;;;17.82;72.30;101763.66;5112193;27;45546;-78
2022/06/11 05:13:59;;;;;;;;;6.25;5.75;;;;;17.65;72.76;101710.09;5130777;27;45343;-82
2022/06/11 05:16:25;;;;;;;;;6.25;6.00;;;;;17.85;73.18;101748.66;5121813;27;45062;-80
2022/06/11 05:18:51;;;;;;;;;7.50;7.50;;;;;17.79;73.08;101733.50;5113176;27;45891;-79
2022/06/11 05:21:17;;;;;;;;;8.25;8.25;;;;;18.01;73.01;101755.19;5118419;27;45270;-80
2022/06/11 05:23:42;;;;;;;;;8.50;8.50;;;;;17.97;72.80;101735.59;5115725;27;45140;-81
2022/06/11 05:26:09;;;;;;;;;9.50;9.50;;;;;18.07;72.96;101743.78;5114592;27;45127;-79
2022/06/11 05:28:35;;;;;;;;;11.00;8.50;;;;;18.21;72.98;101759.16;5121205;27;46110;-79
2022/06/11 05:31:01;;;;;;;;;9.00;8.00;;;;;18.11;72.87;101729.66;5110824;27;45658;-79
2022/06/11 05:33:27;;;;;;;;;9.75;8.75;;;;;18.27;72.49;101745.06;5124054;27;45627;-80
2022/06/11 05:35:53;;;;;;;;;8.75;8.50;;;;;18.38;73.00;101747.94;5112316;27;45248;-81
2022/06/11 05:38:23;;;;;;;;;9.75;9.75;;;;;18.42;72.66;101747.09;5113272;27;46125;-80
2022/06/11 05:40:50;;;;;;;;;11.25;10.50;;;;;18.22;73.04;101697.06;5124926;27;45800;-80
2022/06/11 05:43:16;;;;;;;;;8.25;7.00;;;;;18.33;72.65;101707.03;5128303;27;44912;-82
2022/06/11 05:45:46;;;;;;;;;9.75;9.00;;;;;18.44;72.63;101714.34;5108906;27;45115;-80
2022/06/11 05:48:16;;;;;;;;;10.25;9.50;;;;;18.62;72.71;101737.75;5108651;27;45341;-79
2022/06/11 05:50:45;;;;;;;;;11.75;10.25;;;;;18.69;72.28;101746.75;5109084;27;45688;-80
2022/06/11 05:53:14;;;;;;;;;9.50;8.75;;;;;18.73;72.18;101741.50;5110341;27;45138;-81
2022/06/11 05:55:41;;;;;;;;;10.25;9.50;;;;;18.68;72.47;101734.28;5110708;27;45253;-79
2022/06/11 05:58:15;;;;;;;;;9.50;9.50;;;;;18.68;71.96;101715.66;5108415;27;46076;-80
2022/06/11 06:00:42;;;;;;;;;9.25;9.00;;;;;18.78;72.09;101730.94;5110707;27;45993;-79
2022/06/11 06:03:07;;;;;;;;;13.25;11.75;;;;;18.75;72.24;101722.88;5130174;27;45083;-80
2022/06/11 06:05:34;;;;;;;;;10.50;9.25;;;;;18.87;72.17;101735.53;5127816;27;45257;-80
2022/06/11 06:07:59;;;;;;;;;8.00;8.00;;;;;18.90;72.22;101733.78;5127860;27;45394;-87
2022/06/11 06:10:25;;;;;;;;;8.50;8.25;;;;;19.00;71.76;101746.38;5119909;27;45092;-87
2022/06/11 06:12:51;;;;;;;;;8.75;8.75;;;;;19.00;71.55;101743.72;5112364;27;45427;-85
2022/06/11 06:15:21;;;;;;;;;9.00;7.75;;;;;19.18;71.65;101763.56;5104934;27;45440;-88
2022/06/11 06:17:49;;;;;;;;;8.50;8.50;;;;;19.22;71.64;101758.28;5083609;27;47618;-82
2022/06/11 06:20:16;;;;;;;;;9.00;8.75;;;;;19.21;71.81;101759.16;5110499;27;45843;-83
2022/06/11 06:22:42;;;;;;;;;9.25;9.25;;;;;19.28;71.66;101754.81;5094190;27;45179;-79
2022/06/11 06:25:10;;;;;;;;;9.00;8.00;;;;;19.19;71.28;101731.56;5107881;27;45284;-81
2022/06/11 06:27:36;;;;;;;;;12.00;11.75;;;;;19.35;71.50;101751.34;5119791;27;45509;-79
2022/06/11 06:30:01;;;;;;;;;11.25;11.00;;;;;19.30;71.13;101742.41;5128610;27;45399;-80
2022/06/11 06:32:26;;;;;;;;;9.50;8.75;;;;;19.32;70.96;101735.34;5109689;27;45258;-82
2022/06/11 06:34:52;;;;;;;;;9.25;8.75;;;;;19.32;71.38;101730.91;5126627;27;45303;-78
2022/06/11 06:37:17;;;;;;;;;11.00;9.00;;;;;19.50;71.45;101759.56;5122993;27;45170;-79
2022/06/11 06:39:42;;;;;;;;;8.25;8.00;;;;;19.48;71.16;101747.09;5113631;27;45366;-80
2022/06/11 06:42:08;;;;;;;;;11.50;11.00;;;;;19.39;70.95;101725.66;5110780;27;45159;-81
2022/06/11 06:44:34;;;;;;;;;12.25;11.00;;;;;19.66;71.02;101763.41;5116073;27;45276;-82
2022/06/11 06:47:00;;;;;;;;;9.50;9.50;;;;;19.42;70.98;101718.59;5109539;27;47481;-83
2022/06/11 06:49:26;;;;;;;;;8.75;8.75;;;;;19.58;70.81;101733.91;5130647;27;45043;-87
2022/06/11 06:51:51;;;;;;;;;8.00;8.00;;;;;19.58;70.80;101727.69;5130460;27;44974;-83
2022/06/11 06:54:17;;;;;;;;;10.00;9.50;;;;;19.63;71.05;101727.78;5127983;27;45489;-80
2022/06/11 06:56:44;;;;;;;;;11.75;9.50;;;;;19.68;70.93;101726.97;5129787;27;45628;-81
2022/06/11 06:59:10;;;;;;;;;10.50;9.75;;;;;19.54;70.88;101689.41;5126811;27;45186;-79
2022/06/11 07:01:35;;;;;;;;;9.50;8.75;;;;;19.89;70.85;101750.34;5123402;27;45118;-79
2022/06/11 07:04:00;;;;;;;;;12.25;12.25;;;;;19.94;70.77;101745.97;5107147;27;45236;-84
2022/06/11 07:06:26;;;;;;;;;10.25;10.00;;;;;19.82;70.71;101714.69;5123002;27;45173;-84
2022/06/11 07:08:53;;;;;;;;;12.00;10.75;;;;;19.89;70.24;101712.09;5124072;27;45713;-80
2022/06/11 07:11:19;;;;;;;;;11.00;9.75;;;;;20.00;69.87;101732.72;5124045;27;45026;-84
2022/06/11 07:13:44;;;;;;;;;10.00;10.00;;;;;19.97;70.81;101716.66;5125943;27;45204;-81
2022/06/11 07:16:12;;;;;;;;;9.50;8.50;;;;;20.13;69.97;101732.84;5126702;27;45452;-84
2022/06/11 07:18:51;;;;;;;;;8.50;8.00;;;;;20.04;69.90;101722.94;5124848;27;46594;-81
2022/06/11 07:21:21;;;;;;;;;11.25;11.25;;;;;20.21;69.37;101741.84;5131469;27;45248;-89
2022/06/11 07:23:51;;;;;;;;;9.00;9.00;;;;;20.16;69.71;101728.44;5133296;27;45346;-80
2022/06/11 07:26:22;;;;;;;;;11.25;7.75;;;;;20.28;69.54;101739.22;5118544;27;45713;-80
2022/06/11 07:29:00;;;;;;;;;8.00;7.50;;;;;20.24;68.98;101723.16;5131310;27;45345;-83
2022/06/11 07:31:29;;;;;;;;;11.75;10.25;;;;;20.40;69.03;101743.81;5111490;27;45454;-82
2022/06/11 07:33:55;;;;;;;;;11.25;11.25;;;;;20.49;69.37;101748.38;5113445;27;45001;-87
2022/06/11 07:36:20;;;;;;;;;8.75;8.00;;;;;20.44;68.85;101729.59;5132542;27;45535;-83
2022/06/11 07:38:46;;;;;;;;;9.50;9.50;;;;;20.41;68.97;101724.25;5112473;27;45591;-81
2022/06/11 07:41:11;;;;;;;;;9.25;8.75;;;;;20.17;68.34;101670.59;5088111;27;45833;-86
2022/06/11 07:43:37;;;;;;;;;11.00;10.00;;;;;20.05;68.04;101634.91;5108072;27;45512;-81
2022/06/11 07:46:02;;;;;;;;;7.25;7.25;;;;;20.20;67.84;101665.31;5088207;27;47183;-78
2022/06/11 07:48:28;;;;;;;;;5.25;5.25;;;;;20.64;68.40;101724.50;5108487;27;45284;-85
2022/06/11 07:50:54;;;;;;;;;9.00;8.50;;;;;20.77;67.86;101733.50;5099258;27;45730;-81
2022/06/11 07:53:21;;;;;;;;;8.25;8.25;;;;;20.88;68.02;101729.13;5098439;27;46507;-86
2022/06/11 07:55:49;;;;;;;;;8.75;8.75;;;;;21.13;67.77;101756.94;5101605;27;45696;-84
2022/06/11 07:58:17;;;;;;;;;12.75;11.00;;;;;21.12;67.57;101734.66;5103585;27;45902;-84
2022/06/11 08:00:46;;;;;;;;;8.75;8.75;;;;;21.01;66.33;101687.38;5105421;27;45643;-88
2022/06/11 08:03:12;;;;;;;;;9.75;9.00;;;;;21.58;66.74;101758.19;5101175;27;45730;-86
2022/06/11 08:05:38;;;;;;;;;8.50;8.25;;;;;21.16;66.09;101671.44;5108216;27;46117;-88
2022/06/11 08:08:07;;;;;;;;;6.00;6.00;;;;;21.76;66.22;101755.59;5099120;27;46018;-85
2022/06/11 08:10:34;;;;;;;;;6.25;6.00;;;;;21.67;65.95;101701.13;5107576;27;45855;-89
2022/06/11 08:13:02;;;;;;;;;8.75;8.25;;;;;22.07;64.63;101759.31;5127355;27;45386;-83
2022/06/11 08:15:28;;;;;;;;;8.50;8.25;;;;;22.13;64.14;101759.34;5126096;27;45408;-90
2022/06/11 08:17:53;;;;;;;;;8.25;8.25;;;;;22.05;63.50;101738.75;5121135;27;45339;-84
2022/06/11 08:20:27;;;;;;;;;6.25;6.25;;;;;21.95;63.39;101716.41;5109540;27;45420;-86
2022/06/11 08:22:52;;;;;;;;;6.75;6.00;;;;;21.98;63.81;101721.78;5122586;27;45197;-80
2022/06/11 08:25:19;;;;;;;;;7.00;6.25;;;;;22.17;62.94;101745.94;5118132;27;45636;-81
2022/06/11 08:27:45;;;;;;;;;8.25;7.25;;;;;22.26;62.76;101752.22;5123488;27;45283;-84
2022/06/11 08:30:16;;;;;;;;;6.00;5.75;;;;;22.27;63.20;101746.00;5117795;27;45508;-81
2022/06/11 08:32:41;;;;;;;;;7.00;6.50;;;;;22.25;63.01;101760.28;5117517;27;45305;-81
2022/06/11 08:35:07;;;;;;;;;8.00;8.00;;;;;22.11;62.87;101750.41;5108574;27;47712;-82
2022/06/11 08:37:33;;;;;;;;;8.00;8.00;;;;;21.78;63.13;101712.78;5123472;27;45280;-81
2022/06/11 08:39:58;;;;;;;;;5.75;5.75;;;;;21.88;63.15;101736.91;5125830;27;45127;-82
2022/06/11 08:42:42;;;;;;;;;7.00;7.00;;;;;21.74;62.69;101703.84;5122759;27;45164;-81
2022/06/11 08:45:41;;;;;;;;;6.75;6.50;;;;;21.96;63.38;101753.00;5129024;27;45922;-82
2022/06/11 08:48:33;;;;;;;;;8.00;7.00;;;;;21.76;62.84;101735.97;5111071;27;45151;-81
2022/06/11 08:51:10;;;;;;;;;6.00;6.00;;;;;21.79;63.20;101746.69;5088424;27;45307;-80
2022/06/11 08:53:37;;;;;;;;;8.00;8.00;;;;;21.56;62.89;101720.72;5130744;27;45102;-89
2022/06/11 08:56:03;;;;;;;;;6.75;6.75;;;;;21.73;63.61;101741.31;5129996;27;45520;-80
2022/06/11 08:58:40;;;;;;;;;8.25;7.25;;;;;21.80;63.00;101754.72;5112645;27;45047;-82
2022/06/11 09:01:20;;;;;;;;;10.75;9.00;;;;;21.90;62.94;101756.53;5114423;27;44996;-80
2022/06/11 09:04:06;;;;;;;;;9.25;8.00;;;;;21.49;63.16;101640.44;5104677;27;45345;-83
2022/06/11 09:07:04;;;;;;;;;7.00;7.00;;;;;22.27;62.59;101713.88;5128881;27;45248;-84
2022/06/11 09:10:10;;;;;;;;;8.75;8.75;;;;;22.51;61.34;101709.41;5119440;27;45175;-80
2022/06/11 09:12:47;;;;;;;;;8.00;8.00;;;;;22.76;61.31;101730.00;5089977;27;45181;-83
2022/06/11 09:15:15;;;;;;;;;7.00;7.00;;;;;22.89;61.56;101725.53;5121295;27;45195;-80
2022/06/11 09:18:19;;;;;;;;;5.25;5.25;;;;;22.97;61.29;101729.13;5082187;27;47339;-82
2022/06/11 09:21:11;;;;;;;;;7.25;7.25;;;;;23.09;60.62;101728.19;5066992;27;45575;-88
2022/06/11 09:23:58;;;;;;;;;6.00;5.75;;;;;23.19;60.64;101735.34;5096583;27;45451;-80
2022/06/11 09:26:41;;;;;;;;;6.75;6.25;;;;;23.29;59.95;101736.22;5109891;27;45191;-80
2022/06/11 09:29:09;;;;;;;;;7.75;7.75;;;;;23.37;59.58;101735.31;5109660;27;45909;-86
2022/06/11 09:31:48;;;;;;;;;9.00;9.00;;;;;23.30;59.33;101712.09;5091441;27;45267;-81
2022/06/11 09:34:18;;;;;;;;;7.00;6.75;;;;;23.09;59.51;101678.13;5110671;27;45050;-80
2022/06/11 09:37:07;;;;;;;;;8.00;7.00;;;;;23.47;59.22;101730.81;5109994;27;45302;-80
2022/06/11 09:39:42;;;;;;;;;7.00;7.00;;;;;23.30;59.07;101706.72;5091392;27;47160;-81
2022/06/11 09:42:28;;;;;;;;;8.00;7.75;;;;;23.23;58.65;101712.09;5109923;27;45227;-88
2022/06/11 09:45:12;;;;;;;;;9.00;8.00;;;;;23.22;58.99;101723.72;5109629;27;45136;-83
2022/06/11 09:47:52;;;;;;;;;8.75;7.50;;;;;23.12;59.39;101726.41;5110895;27;45082;-88
2022/06/11 09:50:21;;;;;;;;;7.25;7.00;;;;;23.07;58.74;101727.31;5091043;27;47747;-85
2022/06/11 09:53:37;;;;;;;;;5.75;5.25;;;;;22.83;59.24;101693.34;5110232;27;45566;-80
2022/06/11 09:56:23;;;;;;;;;6.25;6.00;;;;;23.00;59.61;101733.56;5006972;28;45211;-81
2022/06/11 09:59:16;;;;;;;;;6.25;6.25;;;;;22.65;59.02;101697.81;5006223;28;45127;-81
2022/06/11 10:01:51;;;;;;;;;7.25;7.00;;;;;22.75;59.19;101725.50;5096125;27;46077;-81
2022/06/11 10:04:24;;;;;;;;;5.75;5.75;;;;;22.62;59.40;101691.56;5109918;27;45529;-84
2022/06/11 10:06:54;;;;;;;;;6.50;6.50;;;;;22.88;59.21;101734.44;5109821;27;45142;-82
2022/06/11 10:09:27;;;;;;;;;7.25;6.50;;;;;22.87;58.77;101736.25;5115033;27;45208;-84
2022/06/11 10:11:59;;;;;;;;;6.50;6.25;;;;;22.72;58.56;101703.19;5109472;27;45413;-81
2022/06/11 10:14:47;;;;;;;;;6.25;6.25;;;;;23.05;59.03;101732.66;5109366;27;45490;-82
2022/06/11 10:17:28;;;;;;;;;5.25;5.00;;;;;23.30;58.98;101729.94;5039189;27;45360;-81
2022/06/11 10:20:17;;;;;;;;;6.50;5.50;;;;;23.59;58.08;101729.88;5090690;27;45157;-81
2022/06/11 10:23:08;;;;;;;;;7.00;7.00;;;;;23.87;57.45;101723.53;5091154;27;47397;-81
2022/06/11 10:25:47;;;;;;;;;7.00;7.00;;;;;24.03;57.33;101727.03;5109884;27;45598;-88
2022/06/11 10:28:23;;;;;;;;;7.00;6.00;;;;;23.99;56.91;101708.25;5109680;27;45586;-88
2022/06/11 10:30:52;;;;;;;;;7.00;5.00;;;;;24.05;55.80;101732.41;5090559;27;45191;-87
2022/06/11 10:33:24;;;;;;;;;6.50;6.50;;;;;24.01;56.07;101731.53;5109537;27;45670;-82
2022/06/11 10:36:16;;;;;;;;;5.00;5.00;;;;;24.05;56.47;101706.44;5108854;27;45446;-80
2022/06/11 10:38:51;;;;;;;;;6.25;6.00;;;;;24.10;56.59;101684.94;5064753;27;44992;-83
2022/06/11 10:41:32;;;;;;;;;6.50;5.75;;;;;24.36;55.47;101698.22;5111669;27;45240;-82
2022/06/11 10:44:26;;;;;;;;;6.75;6.75;;;;;24.52;54.80;101729.44;5129940;27;45682;-87
2022/06/11 10:46:52;;;;;;;;;4.00;4.00;;;;;23.77;54.88;101627.81;5110246;27;45142;-84
2022/06/11 10:49:22;;;;;;;;;5.00;4.25;;;;;23.86;55.10;101659.09;5134054;27;45063;-81
2022/06/11 10:51:56;;;;;;;;;5.50;4.75;;;;;24.21;55.58;101734.09;5113865;27;45077;-85
2022/06/11 10:54:24;;;;;;;;;4.75;4.75;;;;;24.29;54.73;101724.22;5129929;27;46094;-90
2022/06/11 10:57:03;;;;;;;;;4.75;4.75;;;;;23.98;55.09;101676.94;5139440;27;45771;-91
2022/06/11 10:59:35;;;;;;;;;5.25;5.00;;;;;24.11;54.94;101679.53;5141000;27;45123;-82
2022/06/11 11:02:19;;;;;;;;;4.25;4.25;;;;;24.53;53.83;101723.19;5118781;27;45255;-79
2022/06/11 11:04:59;;;;;;;;;4.25;4.25;;;;;24.60;54.59;101698.03;5118422;27;46122;-81
2022/06/11 11:07:25;;;;;;;;;4.50;4.50;;;;;24.79;53.76;101703.25;5121319;27;45250;-80
2022/06/11 11:09:58;;;;;;;;;4.00;4.00;;;;;24.93;52.96;101728.22;5133058;27;45080;-83
2022/06/11 11:12:29;;;;;;;;;3.50;3.50;;;;;24.72;52.87;101688.94;5136533;27;44997;-80
2022/06/11 11:15:24;;;;;;;;;5.00;5.00;;;;;24.99;52.36;101722.78;5118681;27;45188;-83
2022/06/11 11:17:54;;;;;;;;;4.50;3.50;;;;;24.80;52.81;101705.03;5116758;27;45590;-83
2022/06/11 11:20:42;;;;;;;;;4.75;4.75;;;;;24.64;52.40;101726.69;5118747;27;45157;-82
2022/06/11 11:23:14;;;;;;;;;3.00;3.00;;;;;24.58;53.30;101721.34;5123823;27;45170;-80
2022/06/11 11:26:10;;;;;;;;;6.00;5.00;;;;;24.76;54.06;101719.41;5111837;27;45910;-82
2022/06/11 11:28:45;;;;;;;;;5.00;5.00;;;;;24.74;52.76;101703.28;5112223;27;45335;-84
2022/06/11 11:31:22;;;;;;;;;3.25;3.25;;;;;24.68;52.70;101701.56;5113481;27;45123;-85
2022/06/11 11:34:21;;;;;;;;;3.50;3.50;;;;;24.52;52.28;101686.44;5121688;27;45130;-89
2022/06/11 11:36:47;;;;;;;;;4.00;3.25;;;;;24.52;52.98;101673.00;5131881;27;46822;-82
2022/06/11 11:39:12;;;;;;;;;3.00;3.00;;;;;24.99;52.87;101721.91;5131054;27;45176;-90
2022/06/11 11:41:48;;;;;;;;;4.00;3.75;;;;;24.74;52.50;101684.47;5120276;27;45341;-90
2022/06/11 11:44:23;;;;;;;;;3.25;3.00;;;;;25.04;51.80;101720.06;5115398;27;45269;-88
2022/06/11 11:47:00;;;;;;;;;5.00;5.00;;;;;24.64;51.30;101648.72;5122776;27;45599;-82
2022/06/11 11:49:29;;;;;;;;;3.00;3.00;;;;;25.05;51.27;101706.59;5122335;27;45040;-90